createdAt,value
2018-02-21T00:00:55.656Z,31.35
2018-02-21T00:03:21.887Z,29.60
2018-02-21T00:05:48.126Z,30.48
2018-02-21T00:08:14.328Z,32.95
2018-02-21T00:10:40.764Z,33.05
2018-02-21T00:13:07.069Z,32.28
2018-02-21T00:15:33.657Z,32.90
2018-02-21T00:17:59.971Z,32.08
2018-02-21T00:20:26.155Z,35.60
2018-02-21T00:22:52.551Z,35.75
2018-02-21T00:25:18.776Z,34.78
2018-02-21T00:27:45.046Z,35.50
2018-02-21T00:30:12.398Z,38.38
2018-02-21T00:32:39.000Z,34.50
2018-02-21T00:35:05.209Z,36.30
2018-02-21T00:37:31.412Z,37.60
2018-02-21T00:39:57.730Z,36.60
2018-02-21T00:42:23.997Z,34.63
2018-02-21T00:44:50.269Z,34.78
2018-02-21T00:47:16.572Z,35.40
2018-02-21T00:49:42.947Z,34.70
2018-02-21T00:52:09.166Z,36.65
2018-02-21T00:54:35.357Z,35.10
2018-02-21T00:57:01.660Z,36.03
2018-02-21T00:59:27.886Z,37.22
2018-02-21T01:01:54.107Z,33.90
2018-02-21T01:04:20.367Z,33.20
2018-02-21T01:06:46.584Z,33.08
2018-02-21T01:09:12.803Z,33.78
2018-02-21T01:11:39.052Z,32.90
2018-02-21T01:14:05.277Z,33.67
2018-02-21T01:16:31.468Z,31.15
2018-02-21T01:18:57.728Z,30.83
2018-02-21T01:21:24.033Z,29.73
2018-02-21T01:23:50.251Z,30.17
2018-02-21T01:26:16.489Z,27.65
2018-02-21T01:28:43.226Z,28.40
2018-02-21T01:31:10.056Z,31.10
2018-02-21T01:33:36.277Z,28.35
2018-02-21T01:36:02.588Z,26.67
2018-02-21T01:38:28.866Z,28.87
2018-02-21T01:40:55.098Z,28.00
2018-02-21T01:43:21.771Z,27.95
2018-02-21T01:45:47.997Z,26.48
2018-02-21T01:48:14.199Z,30.27
2018-02-21T01:50:51.458Z,26.08
2018-02-21T01:53:17.698Z,26.85
2018-02-21T01:55:43.894Z,26.00
2018-02-21T01:58:10.221Z,28.95
2018-02-21T02:00:36.809Z,26.60
2018-02-21T02:03:02.986Z,27.70
2018-02-21T02:05:29.233Z,26.33
2018-02-21T02:07:55.479Z,27.33
2018-02-21T02:10:21.685Z,28.10
2018-02-21T02:12:47.920Z,25.83
2018-02-21T02:15:14.123Z,27.73
2018-02-21T02:17:40.478Z,26.58
2018-02-21T02:20:06.725Z,24.70
2018-02-21T02:22:32.975Z,24.60
2018-02-21T02:24:59.230Z,26.92
2018-02-21T02:27:25.797Z,27.52
2018-02-21T02:29:51.986Z,25.60
2018-02-21T02:32:18.171Z,25.98
2018-02-21T02:34:44.884Z,26.55
2018-02-21T02:37:11.154Z,28.77
2018-02-21T02:40:02.348Z,27.02
2018-02-21T02:42:28.603Z,27.37
2018-02-21T02:44:54.803Z,25.77
2018-02-21T02:47:21.046Z,27.73
2018-02-21T02:49:47.325Z,27.23
2018-02-21T02:52:13.591Z,25.40
2018-02-21T02:54:39.860Z,27.48
2018-02-21T02:57:06.145Z,26.52
2018-02-21T02:59:32.393Z,27.65
2018-02-21T03:01:58.672Z,28.42
2018-02-21T03:04:24.977Z,26.33
2018-02-21T03:06:51.230Z,28.80
2018-02-21T03:09:17.776Z,27.90
2018-02-21T03:11:44.375Z,30.15
2018-02-21T03:14:10.688Z,29.92
2018-02-21T03:16:36.936Z,29.80
2018-02-21T03:19:03.148Z,28.85
2018-02-21T03:21:29.360Z,29.00
2018-02-21T03:23:55.572Z,29.70
2018-02-21T03:26:21.784Z,30.70
2018-02-21T03:28:48.009Z,34.90
2018-02-21T03:31:14.537Z,33.28
2018-02-21T03:33:40.730Z,33.05
2018-02-21T03:36:06.942Z,33.55
2018-02-21T03:38:33.271Z,33.47
2018-02-21T03:40:59.454Z,33.58
2018-02-21T03:43:25.705Z,34.70
2018-02-21T03:45:51.906Z,33.35
2018-02-21T03:48:18.197Z,35.85
2018-02-21T03:50:44.430Z,32.78
2018-02-21T03:53:11.617Z,35.25
2018-02-21T03:55:37.833Z,35.65
2018-02-21T03:58:04.522Z,36.30
2018-02-21T04:00:30.826Z,35.28
2018-02-21T04:02:57.057Z,36.10
2018-02-21T04:05:23.272Z,36.30
2018-02-21T04:07:49.625Z,35.90
2018-02-21T04:10:15.894Z,33.75
2018-02-21T04:12:43.516Z,35.03
2018-02-21T04:15:09.853Z,36.28
2018-02-21T04:17:36.078Z,34.75
2018-02-21T04:20:02.293Z,38.35
2018-02-21T04:22:28.528Z,36.53
2018-02-21T04:24:54.795Z,34.67
2018-02-21T04:27:21.033Z,36.08
2018-02-21T04:29:47.648Z,35.67
2018-02-21T04:32:13.852Z,34.85
2018-02-21T04:34:40.347Z,31.75
2018-02-21T04:37:06.925Z,32.67
2018-02-21T04:39:33.191Z,34.60
2018-02-21T04:41:59.796Z,36.33
2018-02-21T04:44:26.109Z,34.60
2018-02-21T04:46:52.348Z,35.65
2018-02-21T04:49:18.697Z,35.75
2018-02-21T04:51:45.773Z,34.53
2018-02-21T04:54:12.007Z,31.98
2018-02-21T04:56:40.495Z,32.53
2018-02-21T04:59:24.432Z,31.02
2018-02-21T05:01:51.149Z,31.65
2018-02-21T05:04:17.370Z,32.10
2018-02-21T05:06:43.628Z,32.30
2018-02-21T05:09:09.898Z,29.00
2018-02-21T05:11:36.119Z,28.30
2018-02-21T05:14:02.359Z,26.02
2018-02-21T05:16:28.570Z,27.83
2018-02-21T05:18:55.279Z,27.23
2018-02-21T05:21:21.541Z,25.92
2018-02-21T05:23:47.751Z,25.10
2018-02-21T05:26:14.320Z,26.73
2018-02-21T05:28:40.746Z,26.30
2018-02-21T05:31:06.952Z,27.17
2018-02-21T05:33:33.174Z,26.77
2018-02-21T05:35:59.428Z,26.37
2018-02-21T05:38:25.811Z,28.27
2018-02-21T05:40:52.032Z,26.50
2018-02-21T05:43:18.259Z,25.20
2018-02-21T05:45:44.566Z,27.33
2018-02-21T05:48:10.907Z,27.65
2018-02-21T05:50:37.122Z,28.50
2018-02-21T05:53:03.399Z,27.70
2018-02-21T05:55:29.649Z,26.48
2018-02-21T05:57:55.904Z,26.50
2018-02-21T06:00:22.120Z,26.15
2018-02-21T06:02:48.326Z,29.02
2018-02-21T06:05:14.599Z,26.87
2018-02-21T06:07:56.215Z,26.15
2018-02-21T06:10:22.865Z,26.67
2018-02-21T06:12:49.454Z,26.52
2018-02-21T06:15:15.681Z,28.35
2018-02-21T06:17:41.989Z,29.98
2018-02-21T06:20:08.339Z,28.42
2018-02-21T06:22:35.159Z,28.05
2018-02-21T06:25:01.507Z,27.65
2018-02-21T06:27:28.108Z,29.02
2018-02-21T06:29:54.326Z,27.80
2018-02-21T06:32:21.033Z,30.12
2018-02-21T06:34:47.307Z,27.48
2018-02-21T06:37:13.612Z,30.12
2018-02-21T06:39:40.168Z,31.73
2018-02-21T06:42:06.412Z,30.40
2018-02-21T06:44:32.985Z,31.02
2018-02-21T06:46:59.230Z,33.10
2018-02-21T06:49:25.416Z,31.77
2018-02-21T06:51:51.638Z,31.77
2018-02-21T06:54:17.851Z,34.65
2018-02-21T06:56:44.208Z,33.00
2018-02-21T06:59:10.435Z,35.83
2018-02-21T07:01:36.730Z,35.20
2018-02-21T07:04:02.962Z,34.25
2018-02-21T07:06:29.187Z,35.83
2018-02-21T07:08:55.383Z,35.03
2018-02-21T07:11:22.112Z,35.05
2018-02-21T07:13:48.302Z,34.65
2018-02-21T07:16:14.539Z,36.92
2018-02-21T07:18:40.851Z,35.30
2018-02-21T07:21:07.084Z,35.72
2018-02-21T07:23:33.280Z,36.28
2018-02-21T07:25:59.551Z,32.75
2018-02-21T07:28:25.775Z,39.50
2018-02-21T07:30:51.958Z,37.47
2018-02-21T07:33:18.173Z,38.28
2018-02-21T07:35:44.478Z,39.33
2018-02-21T07:38:11.425Z,40.55
2018-02-21T07:40:37.804Z,38.58
2018-02-21T07:43:04.476Z,38.45
2018-02-21T07:45:30.753Z,39.60
2018-02-21T07:47:57.040Z,41.53
2018-02-21T07:50:23.360Z,42.70
2018-02-21T07:52:49.628Z,41.00
2018-02-21T07:55:15.843Z,43.13
2018-02-21T07:57:42.131Z,40.67
2018-02-21T08:00:08.484Z,41.47
2018-02-21T08:02:34.740Z,47.53
2018-02-21T08:05:01.007Z,43.80
2018-02-21T08:07:27.235Z,46.55
2018-02-21T08:09:53.476Z,40.85
2018-02-21T08:12:19.707Z,43.67
2018-02-21T08:14:45.883Z,48.17
2018-02-21T08:17:12.109Z,46.10
2018-02-21T08:19:38.885Z,52.35
2018-02-21T08:22:05.139Z,48.10
2018-02-21T08:24:31.353Z,53.15
2018-02-21T08:26:58.344Z,47.72
2018-02-21T08:29:24.561Z,45.42
2018-02-21T08:31:50.751Z,45.92
2018-02-21T08:34:16.999Z,48.13
2018-02-21T08:36:43.223Z,43.13
2018-02-21T08:39:09.410Z,40.80
2018-02-21T08:41:36.265Z,42.17
2018-02-21T08:44:02.902Z,43.78
2018-02-21T08:46:29.104Z,45.60
2018-02-21T08:48:55.584Z,41.85
2018-02-21T08:51:21.817Z,45.65
2018-02-21T08:53:48.043Z,45.38
2018-02-21T08:56:14.274Z,46.03
2018-02-21T08:58:40.556Z,44.92
2018-02-21T09:01:07.156Z,42.62
2018-02-21T09:03:33.466Z,44.88
2018-02-21T09:05:59.676Z,44.88
2018-02-21T09:08:25.917Z,43.72
2018-02-21T09:10:52.493Z,44.30
2018-02-21T09:13:18.685Z,44.45
2018-02-21T09:15:44.999Z,46.30
2018-02-21T09:18:11.826Z,48.67
2018-02-21T09:20:38.082Z,43.42
2018-02-21T09:23:04.260Z,46.22
2018-02-21T09:25:30.523Z,44.42
2018-02-21T09:27:56.819Z,44.97
2018-02-21T09:30:23.094Z,45.28
2018-02-21T09:32:49.356Z,45.67
2018-02-21T09:35:15.598Z,48.28
2018-02-21T09:37:41.838Z,45.42
2018-02-21T09:40:08.352Z,44.92
2018-02-21T09:42:34.655Z,44.63
2018-02-21T09:45:00.865Z,41.85
2018-02-21T09:47:27.066Z,41.60
2018-02-21T09:49:53.776Z,44.08
2018-02-21T09:52:19.975Z,44.03
2018-02-21T09:54:46.590Z,43.85
2018-02-21T09:57:13.029Z,42.20
2018-02-21T09:59:39.327Z,45.28
2018-02-21T10:02:05.588Z,45.35
2018-02-21T10:04:31.802Z,44.55
2018-02-21T10:06:58.117Z,45.85
2018-02-21T10:09:25.026Z,45.20
2018-02-21T10:11:51.252Z,48.60
2018-02-21T10:14:17.483Z,45.47
2018-02-21T10:16:43.741Z,48.13
2018-02-21T10:19:09.948Z,47.08
2018-02-21T10:21:36.196Z,46.47
2018-02-21T10:24:02.489Z,47.80
2018-02-21T10:26:28.792Z,49.40
2018-02-21T10:28:55.014Z,49.17
2018-02-21T10:31:21.233Z,51.95
2018-02-21T10:33:47.540Z,51.97
2018-02-21T10:36:13.797Z,49.47
2018-02-21T10:38:40.120Z,54.05
2018-02-21T10:41:06.344Z,50.10
2018-02-21T10:43:32.991Z,51.88
2018-02-21T10:45:59.631Z,46.33
2018-02-21T10:48:25.895Z,45.15
2018-02-21T10:50:52.124Z,47.05
2018-02-21T10:53:18.344Z,48.92
2018-02-21T10:55:44.612Z,47.45
2018-02-21T10:58:11.400Z,50.08
2018-02-21T11:00:43.744Z,53.87
2018-02-21T11:03:10.386Z,49.50
2018-02-21T11:05:36.664Z,45.88
2018-02-21T11:08:02.882Z,46.65
2018-02-21T11:10:29.107Z,48.87
2018-02-21T11:12:55.368Z,47.92
2018-02-21T11:15:21.631Z,48.85
2018-02-21T11:17:47.856Z,57.20
2018-02-21T11:20:14.495Z,50.63
2018-02-21T11:22:40.764Z,56.00
2018-02-21T11:25:07.420Z,54.80
2018-02-21T11:27:33.634Z,54.28
2018-02-21T11:29:59.829Z,54.80
2018-02-21T11:32:26.155Z,55.17
2018-02-21T11:34:52.471Z,42.88
2018-02-21T11:37:18.750Z,45.53
2018-02-21T11:39:45.005Z,46.72
2018-02-21T11:42:11.862Z,43.87
2018-02-21T11:44:38.579Z,58.47
2018-02-21T11:47:05.075Z,55.38
2018-02-21T11:49:31.274Z,45.60
2018-02-21T11:51:57.455Z,41.08
2018-02-21T11:54:23.704Z,38.83
2018-02-21T11:56:49.986Z,44.67
2018-02-21T11:59:16.300Z,41.53
2018-02-21T12:01:42.575Z,43.58
2018-02-21T12:04:08.836Z,40.95
2018-02-21T12:06:35.029Z,44.83
2018-02-21T12:09:01.229Z,43.15
2018-02-21T12:11:28.459Z,41.35
2018-02-21T12:13:54.676Z,40.88
2018-02-21T12:16:21.344Z,44.50
2018-02-21T12:18:47.565Z,42.33
2018-02-21T12:21:13.771Z,40.80
2018-02-21T12:23:40.984Z,41.15
2018-02-21T12:26:07.287Z,43.97
2018-02-21T12:28:33.509Z,45.70
2018-02-21T12:30:59.860Z,42.83
2018-02-21T12:33:26.104Z,43.30
2018-02-21T12:35:52.355Z,40.53
2018-02-21T12:38:18.943Z,41.50
2018-02-21T12:40:51.374Z,41.22
2018-02-21T12:43:18.026Z,43.10
2018-02-21T12:45:44.289Z,44.88
2018-02-21T12:48:10.877Z,50.47
2018-02-21T12:50:37.499Z,42.20
2018-02-21T12:53:03.801Z,42.50
2018-02-21T12:55:30.032Z,42.10
2018-02-21T12:57:56.299Z,51.40
2018-02-21T13:00:22.957Z,44.00
2018-02-21T13:02:49.196Z,42.80
2018-02-21T13:05:15.508Z,44.88
2018-02-21T13:07:41.780Z,40.97
2018-02-21T13:10:08.032Z,43.67
2018-02-21T13:12:34.254Z,42.00
2018-02-21T13:15:00.504Z,39.45
2018-02-21T13:17:26.737Z,39.53
2018-02-21T13:19:52.968Z,42.10
2018-02-21T13:22:19.198Z,41.50
2018-02-21T13:24:45.410Z,42.33
2018-02-21T13:27:11.716Z,43.75
2018-02-21T13:29:37.920Z,40.38
2018-02-21T13:32:04.441Z,43.10
2018-02-21T13:34:30.695Z,42.33
2018-02-21T13:36:56.925Z,40.00
2018-02-21T13:39:23.604Z,42.15
2018-02-21T13:41:49.963Z,40.25
2018-02-21T13:44:16.223Z,40.08
2018-02-21T13:46:42.473Z,41.15
2018-02-21T13:49:08.725Z,40.30
2018-02-21T13:51:34.981Z,37.35
2018-02-21T13:54:01.252Z,39.88
2018-02-21T13:56:27.769Z,37.40
2018-02-21T13:58:54.058Z,38.15
2018-02-21T14:01:20.283Z,41.13
2018-02-21T14:03:47.018Z,38.85
2018-02-21T14:06:13.660Z,37.72
2018-02-21T14:08:40.297Z,37.13
2018-02-21T14:11:06.533Z,37.05
2018-02-21T14:13:32.818Z,36.65
2018-02-21T14:15:59.111Z,35.38
2018-02-21T14:18:25.820Z,34.58
2018-02-21T14:20:52.514Z,34.60
2018-02-21T14:23:18.802Z,38.47
2018-02-21T14:25:45.041Z,35.97
2018-02-21T14:28:12.341Z,35.00
2018-02-21T14:30:38.746Z,36.88
2018-02-21T14:33:04.958Z,34.75
2018-02-21T14:35:31.206Z,37.22
2018-02-21T14:37:57.485Z,35.45
2018-02-21T14:40:24.058Z,35.20
2018-02-21T14:42:50.248Z,35.60
2018-02-21T14:45:16.537Z,34.97
2018-02-21T14:47:42.797Z,36.03
2018-02-21T14:50:09.380Z,35.28
2018-02-21T14:52:35.647Z,34.72
2018-02-21T14:55:01.917Z,34.78
2018-02-21T14:57:28.179Z,33.17
2018-02-21T14:59:54.461Z,32.70
2018-02-21T15:02:20.796Z,33.30
2018-02-21T15:04:47.036Z,37.70
2018-02-21T15:07:13.428Z,37.67
2018-02-21T15:09:39.684Z,37.85
2018-02-21T15:12:05.901Z,37.22
2018-02-21T15:14:32.514Z,34.67
2018-02-21T15:16:58.752Z,35.30
2018-02-21T15:19:24.991Z,35.58
2018-02-21T15:21:51.595Z,36.75
2018-02-21T15:24:18.110Z,38.78
2018-02-21T15:26:44.361Z,35.97
2018-02-21T15:29:10.808Z,42.90
2018-02-21T15:31:37.384Z,37.78
2018-02-21T15:34:03.645Z,36.10
2018-02-21T15:36:29.874Z,40.60
2018-02-21T15:38:56.432Z,35.65
2018-02-21T15:41:22.702Z,34.78
2018-02-21T15:43:48.969Z,35.47
2018-02-21T15:46:15.236Z,33.28
2018-02-21T15:48:41.549Z,35.40
2018-02-21T15:51:07.802Z,33.10
2018-02-21T15:53:34.412Z,37.45
2018-02-21T15:56:00.674Z,42.50
2018-02-21T15:58:27.290Z,38.80
2018-02-21T16:00:53.864Z,37.92
2018-02-21T16:03:20.173Z,34.78
2018-02-21T16:05:46.813Z,35.70
2018-02-21T16:08:13.459Z,34.97
2018-02-21T16:10:39.706Z,38.83
2018-02-21T16:13:05.927Z,39.40
2018-02-21T16:15:32.398Z,35.13
2018-02-21T16:17:58.627Z,35.30
2018-02-21T16:20:24.883Z,36.53
2018-02-21T16:22:51.115Z,34.28
2018-02-21T16:25:17.365Z,33.92
2018-02-21T16:27:43.575Z,36.55
2018-02-21T16:30:09.900Z,35.08
2018-02-21T16:32:36.554Z,32.90
2018-02-21T16:35:02.791Z,36.55
2018-02-21T16:37:29.423Z,34.00
2018-02-21T16:39:55.734Z,36.10
2018-02-21T16:42:21.943Z,34.85
2018-02-21T16:44:48.255Z,34.25
2018-02-21T16:47:14.529Z,34.30
2018-02-21T16:49:41.185Z,34.10
2018-02-21T16:52:07.413Z,32.58
2018-02-21T16:54:33.655Z,35.55
2018-02-21T16:56:59.909Z,32.85
2018-02-21T16:59:26.137Z,35.60
2018-02-21T17:01:52.409Z,32.20
2018-02-21T17:04:19.108Z,32.22
2018-02-21T17:06:45.744Z,31.92
2018-02-21T17:09:12.103Z,35.63
2018-02-21T17:11:38.478Z,33.55
2018-02-21T17:14:04.753Z,32.92
2018-02-21T17:16:30.937Z,34.53
2018-02-21T17:18:57.200Z,36.80
2018-02-21T17:21:23.545Z,39.72
2018-02-21T17:23:50.130Z,47.47
2018-02-21T17:26:16.811Z,41.58
2018-02-21T17:28:43.208Z,41.88
2018-02-21T17:31:09.456Z,41.47
2018-02-21T17:33:35.992Z,46.80
2018-02-21T17:36:02.288Z,38.00
2018-02-21T17:38:28.492Z,35.65
2018-02-21T17:41:00.716Z,33.15
2018-02-21T17:43:26.942Z,40.83
2018-02-21T17:45:53.159Z,43.50
2018-02-21T17:48:19.392Z,41.75
2018-02-21T17:50:45.588Z,38.35
2018-02-21T17:53:11.810Z,36.72
2018-02-21T17:55:38.055Z,31.92
2018-02-21T17:58:04.345Z,31.87
2018-02-21T18:00:31.009Z,33.20
2018-02-21T18:02:57.271Z,31.90
2018-02-21T18:05:23.500Z,32.28
2018-02-21T18:07:49.790Z,35.05
2018-02-21T18:10:16.002Z,47.80
2018-02-21T18:12:42.325Z,45.08
2018-02-21T18:15:08.917Z,50.92
2018-02-21T18:17:35.166Z,45.83
2018-02-21T18:20:01.419Z,40.33
2018-02-21T18:22:28.315Z,35.15
2018-02-21T18:24:54.545Z,38.28
2018-02-21T18:27:27.783Z,35.00
2018-02-21T18:29:54.756Z,35.22
2018-02-21T18:32:21.088Z,32.03
2018-02-21T18:34:47.320Z,31.52
2018-02-21T18:37:13.588Z,31.48
2018-02-21T18:39:39.848Z,29.05
2018-02-21T18:42:06.913Z,35.00
2018-02-21T18:44:33.187Z,30.88
2018-02-21T18:47:00.272Z,28.70
2018-02-21T18:49:26.556Z,29.37
2018-02-21T18:51:53.140Z,34.00
2018-02-21T18:54:19.471Z,32.00
2018-02-21T18:56:46.095Z,33.38
2018-02-21T18:59:12.487Z,32.42
2018-02-21T19:01:39.607Z,31.20
2018-02-21T19:04:05.923Z,29.55
2018-02-21T19:06:32.210Z,32.53
2018-02-21T19:08:58.461Z,29.30
2018-02-21T19:11:25.341Z,29.60
2018-02-21T19:13:51.712Z,32.17
2018-02-21T19:16:18.822Z,31.30
2018-02-21T19:18:45.091Z,28.50
2018-02-21T19:21:18.307Z,29.12
2018-02-21T19:23:44.691Z,29.77
2018-02-21T19:26:11.003Z,29.37
2018-02-21T19:28:37.260Z,29.90
2018-02-21T19:31:03.786Z,29.60
2018-02-21T19:33:30.038Z,29.90
2018-02-21T19:35:56.304Z,29.15
2018-02-21T19:38:22.884Z,31.20
2018-02-21T19:40:49.158Z,30.23
2018-02-21T19:43:15.790Z,30.37
2018-02-21T19:45:42.063Z,28.10
2018-02-21T19:48:08.324Z,28.55
2018-02-21T19:50:34.544Z,28.20
2018-02-21T19:53:00.876Z,28.62
2018-02-21T19:55:27.071Z,30.17
2018-02-21T19:57:53.313Z,31.77
2018-02-21T20:00:19.593Z,28.98
2018-02-21T20:02:45.822Z,28.95
2018-02-21T20:05:12.149Z,29.73
2018-02-21T20:07:38.446Z,32.78
2018-02-21T20:10:04.712Z,35.78
2018-02-21T20:12:31.005Z,39.03
2018-02-21T20:14:57.396Z,40.90
2018-02-21T20:17:23.569Z,39.63
2018-02-21T20:19:49.794Z,31.37
2018-02-21T20:22:16.041Z,43.33
2018-02-21T20:24:42.365Z,33.83
2018-02-21T20:27:08.579Z,35.75
2018-02-21T20:29:34.846Z,27.02
2018-02-21T20:32:01.082Z,27.40
2018-02-21T20:34:27.646Z,32.15
2018-02-21T20:36:53.901Z,34.55
2018-02-21T20:39:20.169Z,30.30
2018-02-21T20:41:46.879Z,26.90
2018-02-21T20:44:13.126Z,24.40
2018-02-21T20:46:39.414Z,25.73
2018-02-21T20:49:05.676Z,26.65
2018-02-21T20:51:32.170Z,25.02
2018-02-21T20:53:58.425Z,24.52
2018-02-21T20:56:24.699Z,23.70
2018-02-21T20:58:51.300Z,22.65
2018-02-21T21:01:17.631Z,24.80
2018-02-21T21:03:44.187Z,25.15
2018-02-21T21:06:12.944Z,26.77
2018-02-21T21:08:39.170Z,22.77
2018-02-21T21:11:05.422Z,25.23
2018-02-21T21:13:31.705Z,24.98
2018-02-21T21:15:58.028Z,23.80
2018-02-21T21:18:24.282Z,23.70
2018-02-21T21:20:50.649Z,23.00
2018-02-21T21:23:17.335Z,24.05
2018-02-21T21:25:43.711Z,23.30
2018-02-21T21:28:09.965Z,24.95
2018-02-21T21:30:36.226Z,23.55
2018-02-21T21:33:02.461Z,26.75
2018-02-21T21:35:28.712Z,27.40
2018-02-21T21:37:54.966Z,26.85
2018-02-21T21:40:21.665Z,24.42
2018-02-21T21:42:47.950Z,25.42
2018-02-21T21:45:14.613Z,25.45
2018-02-21T21:47:41.901Z,26.23
2018-02-21T21:50:08.231Z,27.55
2018-02-21T21:52:34.489Z,27.20
2018-02-21T21:55:01.061Z,27.48
2018-02-21T21:57:27.335Z,28.70
2018-02-21T21:59:53.547Z,25.60
2018-02-21T22:02:19.756Z,27.20
2018-02-21T22:04:46.041Z,28.30
2018-02-21T22:07:12.770Z,29.08
2018-02-21T22:09:39.065Z,25.33
2018-02-21T22:12:05.287Z,27.42
2018-02-21T22:14:31.502Z,27.27
2018-02-21T22:16:57.767Z,28.42
2018-02-21T22:19:23.992Z,27.87
2018-02-21T22:21:50.256Z,29.70
2018-02-21T22:24:17.135Z,26.70
2018-02-21T22:26:43.347Z,26.65
2018-02-21T22:29:09.595Z,28.02
2018-02-21T22:31:35.859Z,27.90
2018-02-21T22:34:02.081Z,29.25
2018-02-21T22:36:28.318Z,26.73
2018-02-21T22:38:55.035Z,25.27
2018-02-21T22:41:21.253Z,25.85
2018-02-21T22:43:47.453Z,25.35
2018-02-21T22:46:13.702Z,25.17
2018-02-21T22:48:39.958Z,25.23
2018-02-21T22:51:06.161Z,27.05
2018-02-21T22:53:32.394Z,22.80
2018-02-21T22:55:58.637Z,25.37
2018-02-21T22:58:24.874Z,23.45
2018-02-21T23:00:51.076Z,24.50
2018-02-21T23:03:17.706Z,25.08
2018-02-21T23:05:43.938Z,24.50
2018-02-21T23:08:10.267Z,24.20
2018-02-21T23:10:36.512Z,23.90
2018-02-21T23:13:02.758Z,23.62
2018-02-21T23:15:29.035Z,21.95
2018-02-21T23:17:55.245Z,23.45
2018-02-21T23:20:21.556Z,22.73
2018-02-21T23:22:48.160Z,23.73
2018-02-21T23:25:14.370Z,23.35
2018-02-21T23:27:41.264Z,23.45
2018-02-21T23:30:07.835Z,23.80
2018-02-21T23:32:34.128Z,27.00
2018-02-21T23:35:00.761Z,22.42
2018-02-21T23:37:27.340Z,21.30
2018-02-21T23:39:53.546Z,21.70
2018-02-21T23:42:19.943Z,22.25
2018-02-21T23:44:46.159Z,24.65
2018-02-21T23:47:12.366Z,19.80
2018-02-21T23:49:38.617Z,21.60
2018-02-21T23:52:04.854Z,21.20
2018-02-21T23:54:31.037Z,23.58
2018-02-21T23:56:57.275Z,20.80
2018-02-21T23:59:23.858Z,19.77
